Time;durP1;ratioP1;P1;durP2;ratioP2;P2;SDS_P1;SDS_P2;PMS_P1;PMS_P2;Temp;Humidity;BMP_temperature;BMP_pressure;BME280_temperature;BME280_humidity;BME280_pressure;Samples;Min_cycle;Max_cycle;Signal;HPM_P1;HPM_P2
2021/03/19 00:01:26;;;;;;;19.90;16.47;;;4.30;99.90;;;;;;5094694;28;20204;-47
2021/03/19 00:03:52;;;;;;;20.37;17.37;;;4.20;99.90;;;;;;5095637;28;20169;-48
2021/03/19 00:06:18;;;;;;;19.97;16.40;;;4.30;99.90;;;;;;5095559;28;20186;-52
2021/03/19 00:08:44;;;;;;;18.40;15.57;;;4.40;99.90;;;;;;5095265;28;20174;-48
2021/03/19 00:11:09;;;;;;;20.97;16.47;;;4.40;99.90;;;;;;5095683;28;20181;-52
2021/03/19 00:13:35;;;;;;;20.10;16.93;;;4.50;99.90;;;;;;5095845;28;20261;-48
2021/03/19 00:16:00;;;;;;;23.73;19.60;;;4.60;99.90;;;;;;5095427;28;20192;-50
2021/03/19 00:18:26;;;;;;;19.40;16.27;;;4.50;99.90;;;;;;5095859;28;20174;-53
2021/03/19 00:20:52;;;;;;;20.20;16.57;;;4.50;99.90;;;;;;5095199;28;20548;-55
2021/03/19 00:23:17;;;;;;;23.70;20.03;;;4.30;99.90;;;;;;5095250;28;20174;-54
2021/03/19 00:25:43;;;;;;;21.63;17.77;;;4.40;99.90;;;;;;5095729;28;20530;-53
2021/03/19 00:28:14;;;;;;;19.33;16.73;;;4.20;99.90;;;;;;5093756;28;20188;-47
2021/03/19 00:30:41;;;;;;;19.10;16.87;;;4.30;99.90;;;;;;5095865;28;20205;-48
2021/03/19 00:33:07;;;;;;;21.03;16.97;;;4.30;99.90;;;;;;5079992;28;20224;-48
2021/03/19 00:35:32;;;;;;;20.10;16.47;;;4.40;99.90;;;;;;5074713;28;20615;-49
2021/03/19 00:37:58;;;;;;;19.53;16.53;;;4.40;99.90;;;;;;5074562;28;20182;-50
2021/03/19 00:40:24;;;;;;;23.33;19.20;;;4.30;99.90;;;;;;5085926;28;20248;-48
2021/03/19 00:42:50;;;;;;;23.93;19.37;;;4.30;99.90;;;;;;5095076;28;20170;-51
2021/03/19 00:45:16;;;;;;;19.60;16.90;;;4.30;99.90;;;;;;5094736;28;20209;-47
2021/03/19 00:47:42;;;;;;;24.47;19.80;;;4.20;99.90;;;;;;5095530;28;20169;-50
2021/03/19 00:50:11;;;;;;;21.20;17.00;;;4.20;99.90;;;;;;5086127;28;20182;-53
2021/03/19 00:52:37;;;;;;;22.80;18.63;;;4.10;99.90;;;;;;5074841;28;20298;-47
2021/03/19 00:55:07;;;;;;;22.17;18.60;;;4.20;99.90;;;;;;5074644;28;20202;-55
2021/03/19 00:57:32;;;;;;;23.07;18.87;;;4.00;99.90;;;;;;5074679;28;20248;-49
2021/03/19 00:59:58;;;;;;;23.57;19.03;;;3.90;99.90;;;;;;5081853;28;20516;-52
2021/03/19 01:02:23;;;;;;;26.10;20.83;;;3.90;99.90;;;;;;5094711;28;20251;-51
2021/03/19 01:04:49;;;;;;;21.20;16.93;;;3.60;99.90;;;;;;5094541;28;20239;-48
2021/03/19 01:07:15;;;;;;;20.13;16.53;;;3.60;99.90;;;;;;5094858;28;20184;-47
2021/03/19 01:09:40;;;;;;;21.70;18.17;;;3.60;99.90;;;;;;5094211;28;20269;-48
2021/03/19 01:12:06;;;;;;;19.77;16.07;;;3.60;99.90;;;;;;5094369;28;20182;-47
2021/03/19 01:14:32;;;;;;;17.60;15.07;;;3.60;99.90;;;;;;5095898;28;20207;-47
2021/03/19 01:16:58;;;;;;;21.63;17.17;;;3.50;99.90;;;;;;5094715;28;20280;-50
2021/03/19 01:19:24;;;;;;;22.07;18.13;;;3.40;99.90;;;;;;5095312;28;20170;-48
2021/03/19 01:21:49;;;;;;;18.80;15.33;;;3.30;99.90;;;;;;5094018;28;20672;-50
2021/03/19 01:24:15;;;;;;;19.10;16.40;;;3.40;99.90;;;;;;5094724;28;20666;-51
2021/03/19 01:26:40;;;;;;;19.90;16.90;;;3.40;99.90;;;;;;5094404;28;20658;-47
2021/03/19 01:29:06;;;;;;;18.17;15.20;;;3.50;99.90;;;;;;5094445;28;20231;-48
2021/03/19 01:31:32;;;;;;;20.90;17.00;;;3.50;99.90;;;;;;5094143;28;20173;-48
2021/03/19 01:33:58;;;;;;;22.93;17.17;;;3.50;99.90;;;;;;5094702;28;20174;-50
2021/03/19 01:36:24;;;;;;;20.67;17.17;;;3.40;99.90;;;;;;5094081;28;20548;-51
2021/03/19 01:38:49;;;;;;;19.53;15.77;;;3.40;99.90;;;;;;5094579;28;20610;-57
2021/03/19 01:41:15;;;;;;;20.87;16.60;;;3.40;99.90;;;;;;5075763;28;20214;-49
2021/03/19 01:43:53;;;;;;;22.60;18.33;;;3.40;99.90;;;;;;5074785;28;20729;-50
2021/03/19 01:46:56;;;;;;;24.17;19.43;;;3.30;99.90;;;;;;5077948;28;20198;-48
2021/03/19 01:50:00;;;;;;;22.37;18.20;;;3.30;99.90;;;;;;5077927;28;20443;-47
2021/03/19 01:53:04;;;;;;;19.70;16.30;;;3.30;99.90;;;;;;5078341;28;20411;-51
2021/03/19 01:56:07;;;;;;;24.67;19.03;;;3.50;99.90;;;;;;5078242;28;20198;-55
2021/03/19 01:59:10;;;;;;;21.80;17.97;;;3.60;99.90;;;;;;5078227;28;20661;-51
2021/03/19 02:02:12;;;;;;;25.27;19.57;;;3.60;99.90;;;;;;5077803;28;20451;-49
2021/03/19 02:05:15;;;;;;;23.20;18.27;;;3.60;99.90;;;;;;5078131;28;20174;-51
2021/03/19 02:08:18;;;;;;;25.40;19.70;;;3.50;99.90;;;;;;5078394;28;20167;-49
2021/03/19 02:11:21;;;;;;;21.27;16.93;;;3.40;99.90;;;;;;5077588;28;20185;-55
2021/03/19 02:14:24;;;;;;;24.10;19.13;;;3.50;99.90;;;;;;5078008;28;20495;-49
2021/03/19 02:17:27;;;;;;;23.63;18.60;;;3.40;99.90;;;;;;5077614;28;20428;-49
2021/03/19 02:20:30;;;;;;;21.70;18.10;;;3.40;99.90;;;;;;5077521;28;20412;-47
2021/03/19 02:23:33;;;;;;;26.70;21.23;;;3.40;99.90;;;;;;5077440;28;20178;-51
2021/03/19 02:26:36;;;;;;;25.57;19.90;;;3.30;99.90;;;;;;5077076;28;20424;-56
2021/03/19 02:29:38;;;;;;;21.33;17.67;;;3.10;99.90;;;;;;5077863;28;20174;-55
2021/03/19 02:32:14;;;;;;;22.70;18.37;;;3.10;99.90;;;;;;5091860;28;20411;-48
2021/03/19 02:34:57;;;;;;;23.80;20.03;;;3.10;99.90;;;;;;5098099;28;20395;-53
2021/03/19 02:37:28;;;;;;;22.07;17.77;;;3.10;99.90;;;;;;5097636;28;20388;-52
2021/03/19 02:39:54;;;;;;;24.00;19.77;;;3.10;99.90;;;;;;5097355;28;20166;-50
2021/03/19 02:42:24;;;;;;;21.50;17.60;;;3.10;99.90;;;;;;5097054;28;20459;-56
2021/03/19 02:44:50;;;;;;;21.70;17.73;;;3.10;99.90;;;;;;5097140;28;20231;-57
2021/03/19 02:47:16;;;;;;;20.33;17.10;;;3.10;99.90;;;;;;5097755;28;20177;-46
2021/03/19 02:49:42;;;;;;;19.40;16.73;;;3.10;99.90;;;;;;5097395;28;20177;-48
2021/03/19 02:52:08;;;;;;;26.33;20.60;;;3.10;99.90;;;;;;5097451;28;20416;-51
2021/03/19 02:54:34;;;;;;;19.80;17.50;;;3.00;99.90;;;;;;5096860;28;20178;-52
2021/03/19 02:56:59;;;;;;;22.87;18.33;;;3.00;99.90;;;;;;5096163;28;20485;-53
2021/03/19 02:59:25;;;;;;;19.63;16.60;;;3.00;99.90;;;;;;5096770;28;20185;-51
2021/03/19 03:01:51;;;;;;;22.70;18.53;;;3.00;99.90;;;;;;5097024;28;20206;-50
2021/03/19 03:04:18;;;;;;;21.57;17.70;;;3.00;99.90;;;;;;5097025;28;20170;-54
2021/03/19 03:06:47;;;;;;;25.27;19.77;;;3.10;99.90;;;;;;5097028;28;20190;-52
2021/03/19 03:09:16;;;;;;;25.17;20.23;;;3.00;99.90;;;;;;5096626;28;20453;-48
2021/03/19 03:11:43;;;;;;;22.83;18.90;;;2.90;99.90;;;;;;5096641;28;20400;-55
2021/03/19 03:14:12;;;;;;;21.33;17.57;;;2.90;99.90;;;;;;5097008;28;20407;-47
2021/03/19 03:16:38;;;;;;;25.37;20.00;;;2.90;99.90;;;;;;5096867;28;20434;-51
2021/03/19 03:19:05;;;;;;;22.70;17.57;;;3.00;99.90;;;;;;5096320;28;20408;-49
2021/03/19 03:21:31;;;;;;;22.07;18.10;;;3.10;99.90;;;;;;5095984;28;20460;-57
2021/03/19 03:23:57;;;;;;;24.70;19.90;;;3.10;99.90;;;;;;5096646;28;20466;-47
2021/03/19 03:26:23;;;;;;;21.57;18.10;;;3.10;99.90;;;;;;5077370;28;20198;-52
2021/03/19 03:28:49;;;;;;;20.90;17.60;;;3.10;99.90;;;;;;5076783;28;20409;-50
2021/03/19 03:31:14;;;;;;;19.60;16.83;;;3.20;99.90;;;;;;5076515;28;20178;-47
2021/03/19 03:33:40;;;;;;;21.63;17.50;;;3.10;99.90;;;;;;5075959;28;20254;-50
2021/03/19 03:36:06;;;;;;;20.07;16.63;;;3.20;99.90;;;;;;5075942;28;20187;-50
2021/03/19 03:38:32;;;;;;;20.20;17.37;;;3.20;99.90;;;;;;5076069;28;20650;-54
2021/03/19 03:41:06;;;;;;;21.00;16.57;;;3.30;99.90;;;;;;5075837;28;20327;-47
2021/03/19 03:43:34;;;;;;;22.47;17.33;;;3.30;99.90;;;;;;5076352;28;20405;-52
2021/03/19 03:46:01;;;;;;;19.67;16.40;;;3.30;99.90;;;;;;5076298;28;20428;-52
2021/03/19 03:48:31;;;;;;;19.53;16.20;;;3.30;99.90;;;;;;5076429;28;20401;-50
2021/03/19 03:50:59;;;;;;;19.00;15.97;;;3.10;99.90;;;;;;5075874;28;20278;-49
2021/03/19 03:53:25;;;;;;;20.13;16.73;;;3.00;99.90;;;;;;5076019;28;20626;-48
2021/03/19 03:55:51;;;;;;;20.87;17.27;;;3.00;99.90;;;;;;5074468;28;20197;-48
2021/03/19 03:58:18;;;;;;;18.60;15.30;;;2.90;99.90;;;;;;5075673;28;20174;-53
2021/03/19 04:00:44;;;;;;;19.40;16.20;;;3.00;99.90;;;;;;5082748;28;20939;-51
2021/03/19 04:03:11;;;;;;;18.70;15.67;;;3.00;99.90;;;;;;5095763;28;20419;-50
2021/03/19 04:05:43;;;;;;;18.20;15.60;;;3.00;99.90;;;;;;5095721;28;20194;-51
2021/03/19 04:08:11;;;;;;;20.67;17.33;;;3.00;99.90;;;;;;5095610;28;20166;-58
2021/03/19 04:10:38;;;;;;;20.07;16.83;;;2.90;99.90;;;;;;5095226;28;20213;-53
2021/03/19 04:13:04;;;;;;;20.03;16.90;;;3.00;99.90;;;;;;5095433;28;20400;-47
2021/03/19 04:15:30;;;;;;;19.67;15.77;;;2.90;99.90;;;;;;5095867;28;20526;-50
2021/03/19 04:17:59;;;;;;;18.77;15.60;;;2.80;99.90;;;;;;5096733;28;20652;-53
2021/03/19 04:20:25;;;;;;;18.67;15.87;;;2.80;99.90;;;;;;5095759;28;20208;-49
2021/03/19 04:22:51;;;;;;;18.33;16.13;;;2.90;99.90;;;;;;5095439;28;20547;-47
2021/03/19 04:25:18;;;;;;;18.80;14.97;;;2.90;99.90;;;;;;5096042;28;20956;-49
2021/03/19 04:27:47;;;;;;;21.13;17.43;;;3.00;99.90;;;;;;5095362;28;20174;-54
2021/03/19 04:30:26;;;;;;;20.00;16.93;;;3.20;99.90;;;;;;5095219;28;20417;-53
2021/03/19 04:32:54;;;;;;;23.67;18.93;;;3.20;99.90;;;;;;5095482;28;20415;-51
2021/03/19 04:35:22;;;;;;;21.07;17.47;;;3.20;99.90;;;;;;5095344;28;20487;-52
2021/03/19 04:37:50;;;;;;;20.40;17.00;;;3.10;99.90;;;;;;5095969;28;20439;-54
2021/03/19 04:40:16;;;;;;;19.43;16.80;;;3.20;99.90;;;;;;5095499;28;20182;-48
2021/03/19 04:42:42;;;;;;;18.57;15.83;;;3.10;99.90;;;;;;5095479;28;20856;-50
2021/03/19 04:45:08;;;;;;;18.10;15.40;;;3.10;99.90;;;;;;5085157;28;20198;-50
2021/03/19 04:47:34;;;;;;;19.63;16.50;;;3.30;99.90;;;;;;5078655;28;21901;-49
2021/03/19 04:50:00;;;;;;;18.70;15.90;;;3.40;99.90;;;;;;5084189;28;20954;-51
2021/03/19 04:52:25;;;;;;;19.93;16.90;;;3.50;99.90;;;;;;5082804;28;20185;-52
2021/03/19 04:54:51;;;;;;;19.53;15.43;;;3.60;99.90;;;;;;5085879;28;20182;-49
2021/03/19 04:57:17;;;;;;;19.33;15.90;;;3.70;99.90;;;;;;5074703;28;20214;-51
2021/03/19 04:59:42;;;;;;;18.50;15.63;;;3.70;99.90;;;;;;5077161;28;20182;-53
2021/03/19 05:02:08;;;;;;;18.63;15.73;;;3.70;99.90;;;;;;5082385;28;20609;-52
2021/03/19 05:04:33;;;;;;;17.13;15.07;;;3.60;99.90;;;;;;5084259;28;20189;-52
2021/03/19 05:07:04;;;;;;;17.67;15.20;;;3.70;99.90;;;;;;5085416;28;20194;-55
2021/03/19 05:09:31;;;;;;;18.03;15.50;;;3.70;99.90;;;;;;5080216;28;20194;-55
2021/03/19 05:11:58;;;;;;;18.13;15.33;;;3.80;99.90;;;;;;5073759;28;20197;-49
2021/03/19 05:14:23;;;;;;;18.53;15.60;;;3.80;99.90;;;;;;5074856;28;20197;-52
2021/03/19 05:16:49;;;;;;;17.73;15.43;;;3.80;99.90;;;;;;5082684;28;20589;-58
2021/03/19 05:19:16;;;;;;;16.73;14.40;;;3.70;99.90;;;;;;5084260;28;20232;-52
2021/03/19 05:21:41;;;;;;;19.07;15.47;;;3.80;99.90;;;;;;5083368;28;20676;-54
2021/03/19 05:24:07;;;;;;;18.03;15.60;;;3.80;99.90;;;;;;5083181;28;20178;-55
2021/03/19 05:26:33;;;;;;;17.10;14.97;;;3.80;99.90;;;;;;5064945;28;20198;-50
2021/03/19 05:28:58;;;;;;;18.17;15.93;;;3.80;99.90;;;;;;5078401;28;20659;-48
2021/03/19 05:31:24;;;;;;;17.13;15.33;;;3.80;99.90;;;;;;5079846;28;20174;-56
2021/03/19 05:33:54;;;;;;;18.93;15.50;;;3.80;99.90;;;;;;5083245;28;20197;-57
2021/03/19 05:36:27;;;;;;;18.77;16.30;;;3.80;99.90;;;;;;5078761;28;20597;-52
2021/03/19 05:38:53;;;;;;;18.60;15.07;;;3.80;99.90;;;;;;5082550;28;20174;-47
2021/03/19 05:41:25;;;;;;;18.97;15.77;;;3.60;99.90;;;;;;5079804;28;20208;-49
2021/03/19 05:43:53;;;;;;;17.40;15.00;;;3.70;99.90;;;;;;5084302;28;20630;-54
2021/03/19 05:46:29;;;;;;;18.13;15.17;;;3.60;99.90;;;;;;5079527;28;20202;-56
2021/03/19 05:49:01;;;;;;;19.33;15.20;;;3.50;99.90;;;;;;5083436;28;20251;-56
2021/03/19 05:51:37;;;;;;;18.77;15.37;;;3.30;99.90;;;;;;5078647;28;20170;-57
2021/03/19 05:54:23;;;;;;;19.37;16.57;;;3.20;99.90;;;;;;5077477;28;20534;-52
2021/03/19 05:57:07;;;;;;;17.17;14.87;;;3.30;99.90;;;;;;5083692;28;20201;-54
2021/03/19 05:59:42;;;;;;;19.10;16.13;;;3.20;99.90;;;;;;5080719;28;20224;-49
2021/03/19 06:02:35;;;;;;;19.70;15.93;;;3.20;99.90;;;;;;5080558;28;20247;-53
2021/03/19 06:05:06;;;;;;;18.00;16.03;;;3.20;99.90;;;;;;5074227;28;20260;-56
2021/03/19 06:07:46;;;;;;;17.87;15.30;;;3.20;99.90;;;;;;5084461;28;20451;-57
2021/03/19 06:10:18;;;;;;;19.40;15.70;;;3.20;99.90;;;;;;5082623;28;20193;-49
2021/03/19 06:12:44;;;;;;;20.93;16.57;;;3.20;99.90;;;;;;5076740;28;20417;-48
2021/03/19 06:15:29;;;;;;;20.23;17.27;;;3.20;99.90;;;;;;5075684;28;20393;-51
2021/03/19 06:17:56;;;;;;;20.80;17.27;;;3.10;99.90;;;;;;5080865;28;20182;-49
2021/03/19 06:20:24;;;;;;;20.20;16.83;;;3.00;99.90;;;;;;5083333;28;20661;-53
2021/03/19 06:23:03;;;;;;;22.80;17.90;;;2.90;99.90;;;;;;5076375;28;20469;-50
2021/03/19 06:25:33;;;;;;;20.30;17.10;;;2.80;99.90;;;;;;5084230;28;20862;-49
2021/03/19 06:28:02;;;;;;;20.43;16.80;;;2.90;99.90;;;;;;5093841;28;20208;-56
2021/03/19 06:30:42;;;;;;;20.93;17.00;;;2.90;99.90;;;;;;5086874;28;20217;-54
2021/03/19 06:33:14;;;;;;;21.40;17.27;;;3.10;99.90;;;;;;5089673;28;20182;-49
2021/03/19 06:35:43;;;;;;;22.03;17.03;;;3.10;99.90;;;;;;5088086;28;20558;-54
2021/03/19 06:38:37;;;;;;;21.93;18.23;;;3.10;99.90;;;;;;5096605;28;20162;-52
2021/03/19 06:41:23;;;;;;;20.93;16.97;;;3.10;99.90;;;;;;5061211;28;20205;-53
2021/03/19 06:43:49;;;;;;;21.20;17.47;;;3.20;99.90;;;;;;5095545;28;20174;-59
2021/03/19 06:46:26;;;;;;;21.70;19.40;;;3.20;99.90;;;;;;5094048;28;20415;-49
2021/03/19 06:48:54;;;;;;;19.53;17.20;;;3.30;99.90;;;;;;5088590;28;20172;-57
2021/03/19 06:51:29;;;;;;;23.70;19.93;;;3.30;99.90;;;;;;5079900;28;20190;-49
2021/03/19 06:54:11;;;;;;;24.43;18.93;;;3.40;99.90;;;;;;5095931;28;20207;-52
2021/03/19 06:56:39;;;;;;;24.90;19.93;;;3.40;99.90;;;;;;5087850;28;20220;-50
2021/03/19 06:59:22;;;;;;;21.67;17.83;;;3.40;99.90;;;;;;5086404;28;20272;-49
2021/03/19 07:01:48;;;;;;;22.03;17.80;;;3.30;99.90;;;;;;5076270;28;20593;-55
2021/03/19 07:04:32;;;;;;;21.53;17.53;;;3.20;99.90;;;;;;5076211;28;20213;-54
2021/03/19 07:07:34;;;;;;;21.60;18.20;;;3.20;99.90;;;;;;5089118;28;20205;-56
2021/03/19 07:10:17;;;;;;;25.50;19.57;;;3.10;99.90;;;;;;5085352;28;20189;-55
2021/03/19 07:13:00;;;;;;;23.23;18.93;;;3.20;99.90;;;;;;5094746;28;20175;-49
2021/03/19 07:15:54;;;;;;;23.03;18.13;;;3.20;99.90;;;;;;5087638;28;20201;-54
2021/03/19 07:18:53;;;;;;;23.00;17.87;;;3.30;99.90;;;;;;5086921;28;20174;-51
2021/03/19 07:21:42;;;;;;;23.53;18.57;;;3.30;99.90;;;;;;5087143;28;20537;-54
2021/03/19 07:24:29;;;;;;;21.50;17.67;;;3.30;99.90;;;;;;5086212;28;20159;-49
2021/03/19 07:27:28;;;;;;;23.13;17.67;;;3.50;99.90;;;;;;5086648;28;20276;-50
2021/03/19 07:30:29;;;;;;;20.30;17.33;;;3.60;99.90;;;;;;5083878;28;20189;-58
2021/03/19 07:33:31;;;;;;;20.67;16.60;;;3.70;99.90;;;;;;5083645;28;20605;-50
2021/03/19 07:36:00;;;;;;;22.13;16.50;;;3.60;99.90;;;;;;5086407;28;20277;-54
2021/03/19 07:38:54;;;;;;;22.20;17.53;;;3.60;99.90;;;;;;5085400;28;20162;-51
2021/03/19 07:41:28;;;;;;;19.80;16.97;;;3.80;99.90;;;;;;5084817;28;20205;-52
2021/03/19 07:44:32;;;;;;;18.67;16.53;;;4.00;99.90;;;;;;5095581;28;20177;-52
2021/03/19 07:47:32;;;;;;;19.37;16.73;;;4.20;99.90;;;;;;5091714;28;20573;-56
2021/03/19 07:50:22;;;;;;;17.63;15.73;;;4.30;99.90;;;;;;5084592;28;20162;-49
2021/03/19 07:53:05;;;;;;;20.90;16.80;;;4.40;99.90;;;;;;5082893;28;20174;-51
2021/03/19 07:55:31;;;;;;;17.37;15.57;;;4.40;99.90;;;;;;5083220;28;20190;-50
2021/03/19 07:58:17;;;;;;;19.33;16.53;;;4.30;99.90;;;;;;5078794;28;20175;-49
2021/03/19 08:00:49;;;;;;;19.37;16.87;;;4.30;99.90;;;;;;5073029;28;20619;-58
2021/03/19 08:03:24;;;;;;;18.60;16.27;;;4.20;99.90;;;;;;5072987;28;20173;-50
2021/03/19 08:05:51;;;;;;;18.43;15.80;;;4.20;99.90;;;;;;5072812;28;20281;-53
2021/03/19 08:08:44;;;;;;;18.07;15.60;;;4.40;99.90;;;;;;5073055;28;20175;-53
2021/03/19 08:11:18;;;;;;;20.37;16.30;;;4.60;99.90;;;;;;5070601;28;20197;-53
2021/03/19 08:13:48;;;;;;;19.17;16.53;;;4.60;99.90;;;;;;5075893;28;20187;-49
2021/03/19 08:16:38;;;;;;;18.63;16.40;;;4.50;99.90;;;;;;5074909;28;20202;-48
2021/03/19 08:19:25;;;;;;;18.60;15.13;;;4.50;99.90;;;;;;5077380;28;20539;-49
2021/03/19 08:21:58;;;;;;;16.47;13.90;;;4.40;99.90;;;;;;5094898;28;20193;-54
2021/03/19 08:24:49;;;;;;;17.37;15.20;;;4.50;99.90;;;;;;5095557;28;20560;-59
2021/03/19 08:27:30;;;;;;;17.97;15.80;;;4.60;99.90;;;;;;5084376;28;20186;-52
2021/03/19 08:30:27;;;;;;;19.00;14.67;;;4.70;99.90;;;;;;5087830;28;20272;-53
2021/03/19 08:33:16;;;;;;;16.53;14.73;;;4.80;99.90;;;;;;5075156;28;20233;-53
2021/03/19 08:36:11;;;;;;;17.67;15.33;;;5.10;99.90;;;;;;5077102;28;20186;-56
2021/03/19 08:38:45;;;;;;;15.80;14.10;;;5.40;99.90;;;;;;5080064;28;20261;-58
2021/03/19 08:41:15;;;;;;;16.47;13.87;;;5.40;99.90;;;;;;5074985;28;20194;-52
2021/03/19 08:44:05;;;;;;;16.33;14.60;;;5.30;99.90;;;;;;5074416;28;20527;-55
2021/03/19 08:46:52;;;;;;;17.87;15.00;;;5.30;99.90;;;;;;5074154;28;20239;-55
2021/03/19 08:49:23;;;;;;;17.60;15.70;;;5.20;99.90;;;;;;5080059;28;20202;-53
2021/03/19 08:51:49;;;;;;;16.77;14.73;;;5.40;99.90;;;;;;5093111;28;20225;-58
2021/03/19 08:54:20;;;;;;;16.47;14.67;;;5.40;99.90;;;;;;5092608;28;20205;-49
2021/03/19 08:56:49;;;;;;;18.03;16.00;;;5.50;99.90;;;;;;5080222;28;20209;-50
2021/03/19 08:59:41;;;;;;;17.63;14.57;;;5.40;99.90;;;;;;5080359;28;20235;-55
2021/03/19 09:02:32;;;;;;;15.80;13.67;;;5.20;99.90;;;;;;5071374;28;20662;-52
2021/03/19 09:04:58;;;;;;;16.93;14.37;;;5.20;99.90;;;;;;5046403;28;20244;-52
2021/03/19 09:07:27;;;;;;;14.63;13.10;;;5.40;99.90;;;;;;5091885;28;20177;-57
2021/03/19 09:09:56;;;;;;;17.87;15.93;;;5.60;99.90;;;;;;5078729;28;20621;-49
2021/03/19 09:12:30;;;;;;;15.03;13.43;;;6.00;99.90;;;;;;5084603;28;20722;-49
2021/03/19 09:15:17;;;;;;;16.33;14.57;;;6.40;99.90;;;;;;5079568;28;20173;-53
2021/03/19 09:17:49;;;;;;;15.70;14.07;;;6.70;99.90;;;;;;5078813;28;20213;-55
2021/03/19 09:20:24;;;;;;;14.00;11.60;;;6.70;99.90;;;;;;5079656;28;20174;-52
2021/03/19 09:23:10;;;;;;;14.17;12.60;;;6.90;99.90;;;;;;5082753;28;20178;-55
2021/03/19 09:26:16;;;;;;;13.83;11.97;;;7.10;99.90;;;;;;5083149;28;20216;-54
2021/03/19 09:29:02;;;;;;;14.00;12.53;;;6.90;99.90;;;;;;5075277;28;20190;-55
2021/03/19 09:31:28;;;;;;;13.33;11.93;;;6.90;99.90;;;;;;5085477;28;20174;-59
2021/03/19 09:34:01;;;;;;;13.90;12.40;;;6.70;99.90;;;;;;5071509;28;20167;-52
2021/03/19 09:36:59;;;;;;;13.47;12.03;;;6.50;99.90;;;;;;5083836;28;20287;-57
2021/03/19 09:39:49;;;;;;;13.67;11.90;;;6.40;99.90;;;;;;5093709;28;20260;-52
2021/03/19 09:42:18;;;;;;;12.33;10.93;;;6.30;99.90;;;;;;5092655;28;20191;-58
2021/03/19 09:44:49;;;;;;;12.40;11.00;;;6.20;99.90;;;;;;5092972;28;20563;-54
2021/03/19 09:47:18;;;;;;;13.20;11.60;;;6.00;99.90;;;;;;5094113;28;20218;-51
2021/03/19 09:49:43;;;;;;;13.60;12.20;;;5.80;99.90;;;;;;5093707;28;20216;-56
2021/03/19 09:52:17;;;;;;;13.97;12.47;;;5.60;99.90;;;;;;5094591;28;20206;-55
2021/03/19 09:54:44;;;;;;;14.83;12.10;;;5.30;99.90;;;;;;5089929;28;20654;-49
2021/03/19 09:57:21;;;;;;;14.67;13.07;;;5.20;99.90;;;;;;5073713;28;20205;-59
2021/03/19 10:00:13;;;;;;;15.03;13.50;;;5.40;99.90;;;;;;5074779;28;20185;-56
2021/03/19 10:02:40;;;;;;;14.23;12.73;;;5.50;99.90;;;;;;5073143;28;20686;-56
2021/03/19 10:05:14;;;;;;;13.93;12.23;;;5.70;99.90;;;;;;5076091;28;20545;-60
2021/03/19 10:07:49;;;;;;;14.27;12.77;;;5.90;99.90;;;;;;5083273;28;20166;-51
2021/03/19 10:10:41;;;;;;;13.17;11.77;;;6.20;99.90;;;;;;5098435;28;20530;-53
2021/03/19 10:13:16;;;;;;;13.50;12.10;;;6.60;99.90;;;;;;5097928;28;20173;-49
2021/03/19 10:15:46;;;;;;;13.00;11.70;;;6.90;99.90;;;;;;5093375;28;20201;-48
2021/03/19 10:18:38;;;;;;;13.80;11.70;;;7.40;99.90;;;;;;5094193;28;20647;-55
2021/03/19 10:21:12;;;;;;;11.93;10.17;;;7.60;99.90;;;;;;5083243;28;20210;-56
2021/03/19 10:23:44;;;;;;;12.17;10.97;;;7.60;99.90;;;;;;5090870;28;20178;-48
2021/03/19 10:26:24;;;;;;;11.97;10.77;;;7.70;99.90;;;;;;5093824;28;20202;-53
2021/03/19 10:28:52;;;;;;;12.07;10.83;;;7.90;99.90;;;;;;5106146;28;20256;-48
2021/03/19 10:31:22;;;;;;;13.67;11.60;;;8.00;99.90;;;;;;5089546;28;20186;-55
2021/03/19 10:33:51;;;;;;;11.37;10.27;;;7.70;99.90;;;;;;5111335;28;20170;-51
2021/03/19 10:36:53;;;;;;;11.70;10.50;;;7.40;99.90;;;;;;5094176;28;20214;-56
2021/03/19 10:39:41;;;;;;;11.73;10.53;;;7.80;99.90;;;;;;5022799;28;20184;-51
2021/03/19 10:42:36;;;;;;;11.87;10.67;;;8.80;99.90;;;;;;5076281;28;20186;-51
2021/03/19 10:45:19;;;;;;;12.37;10.97;;;9.80;99.90;;;;;;5077248;28;20244;-53
2021/03/19 10:48:06;;;;;;;11.10;10.00;;;10.20;99.90;;;;;;5076973;28;20523;-51
2021/03/19 10:50:37;;;;;;;10.10;9.13;;;11.10;99.90;;;;;;5076919;28;20178;-49
2021/03/19 10:53:18;;;;;;;9.53;8.63;;;12.20;99.90;;;;;;5081028;28;20179;-55
2021/03/19 10:55:50;;;;;;;10.20;9.17;;;12.90;98.00;;;;;;5086709;28;20691;-52
2021/03/19 10:58:22;;;;;;;9.97;8.90;;;12.80;99.80;;;;;;5089428;28;20169;-50
2021/03/19 11:00:49;;;;;;;10.47;9.47;;;12.30;99.40;;;;;;5087474;28;20212;-54
2021/03/19 11:03:39;;;;;;;8.27;7.47;;;11.20;99.90;;;;;;5079096;28;20264;-57
2021/03/19 11:06:08;;;;;;;7.70;7.00;;;12.50;99.90;;;;;;5103523;27;20261;-51
2021/03/19 11:08:34;;;;;;;8.10;7.33;;;13.40;98.30;;;;;;5117514;28;20265;-53
2021/03/19 11:11:00;;;;;;;8.17;7.37;;;13.40;97.40;;;;;;5090352;28;20209;-57
2021/03/19 11:13:31;;;;;;;7.90;7.20;;;13.30;96.40;;;;;;5095032;28;20176;-52
2021/03/19 11:16:00;;;;;;;9.00;8.10;;;12.50;95.00;;;;;;5094789;28;20237;-52
2021/03/19 11:18:35;;;;;;;8.70;7.90;;;11.70;97.70;;;;;;5095184;28;20231;-52
2021/03/19 11:21:23;;;;;;;8.20;7.40;;;11.30;97.00;;;;;;5094851;28;20216;-55
2021/03/19 11:24:01;;;;;;;8.80;7.90;;;11.20;98.80;;;;;;5095244;28;20178;-53
2021/03/19 11:26:30;;;;;;;8.83;8.03;;;10.70;97.70;;;;;;5095219;28;20182;-55
2021/03/19 11:29:24;;;;;;;6.27;5.47;;;11.10;99.80;;;;;;5095966;28;20505;-51
2021/03/19 11:31:59;;;;;;;7.63;6.90;;;11.80;96.60;;;;;;5086529;28;20186;-51
2021/03/19 11:34:35;;;;;;;7.47;6.73;;;12.40;96.60;;;;;;5096238;28;20159;-48
2021/03/19 11:37:14;;;;;;;7.83;7.13;;;12.80;95.00;;;;;;5095775;28;20555;-54
2021/03/19 11:40:15;;;;;;;7.10;6.40;;;13.40;95.70;;;;;;5096335;28;20161;-48
2021/03/19 11:42:42;;;;;;;5.93;5.03;;;13.90;93.80;;;;;;5012861;28;20216;-55
2021/03/19 11:45:19;;;;;;;7.10;6.50;;;15.30;94.30;;;;;;5013090;28;20232;-48
2021/03/19 11:47:48;;;;;;;10.33;9.43;;;17.00;90.90;;;;;;5012754;28;20188;-54
2021/03/19 11:50:23;;;;;;;6.83;6.23;;;18.20;86.80;;;;;;5013591;28;20200;-48
2021/03/19 11:52:52;;;;;;;7.23;6.63;;;18.50;80.60;;;;;;5013429;28;20184;-52
2021/03/19 11:55:20;;;;;;;6.00;5.50;;;18.30;81.80;;;;;;5012068;28;20243;-56
2021/03/19 11:57:48;;;;;;;7.43;6.73;;;17.20;78.40;;;;;;5012494;28;20725;-58
2021/03/19 12:00:21;;;;;;;7.40;6.70;;;14.80;80.90;;;;;;5013551;28;20557;-55
2021/03/19 12:02:49;;;;;;;7.23;6.50;;;13.30;89.90;;;;;;5013004;28;20234;-56
2021/03/19 12:05:19;;;;;;;6.27;5.67;;;13.20;92.50;;;;;;5010519;28;20216;-50
2021/03/19 12:07:44;;;;;;;5.77;5.20;;;14.00;92.40;;;;;;5011057;28;20227;-54
2021/03/19 12:10:11;;;;;;;5.70;5.20;;;14.60;91.50;;;;;;4992703;28;20252;-48
2021/03/19 12:12:37;;;;;;;5.53;5.03;;;15.10;90.80;;;;;;4993169;28;20180;-53
2021/03/19 12:15:04;;;;;;;6.87;6.00;;;14.20;94.10;;;;;;4993144;28;20197;-53
2021/03/19 12:17:30;;;;;;;5.57;5.07;;;14.60;87.20;;;;;;5062065;28;20185;-47
2021/03/19 12:19:56;;;;;;;6.33;5.73;;;;;;;;;;5074749;28;20174;-57
2021/03/19 12:22:22;;;;;;;6.87;5.97;;;;;;;;;;5074036;28;20270;-53
2021/03/19 12:24:47;;;;;;;7.10;6.40;;;12.00;99.90;;;;;;5074420;28;20507;-55
2021/03/19 12:27:14;;;;;;;5.53;4.93;;;;;;;;;;5074573;28;20185;-55
2021/03/19 12:29:40;;;;;;;5.53;5.03;;;11.40;99.90;;;;;;5073385;28;20175;-51
2021/03/19 12:32:07;;;;;;;5.30;4.80;;;10.60;99.90;;;;;;5075570;28;20635;-56
2021/03/19 12:34:33;;;;;;;5.57;5.07;;;10.30;99.90;;;;;;5074182;28;20261;-55
2021/03/19 12:38:49;;;;;;;5.20;4.70;;;10.20;98.70;;;;;;5089279;28;20914;-52
2021/03/19 12:41:15;;;;;;;4.60;4.20;;;9.50;99.40;;;;;;5089802;28;20665;-56
2021/03/19 12:43:41;;;;;;;4.30;3.90;;;9.30;99.90;;;;;;5090868;28;20174;-56
2021/03/19 12:46:07;;;;;;;5.43;4.53;;;8.90;99.90;;;;;;5090076;28;20190;-52
2021/03/19 12:48:33;;;;;;;5.63;4.50;;;8.70;99.90;;;;;;5090386;28;20162;-57
2021/03/19 12:50:59;;;;;;;5.40;4.90;;;8.50;99.90;;;;;;5090494;28;20180;-56
2021/03/19 12:53:25;;;;;;;20.30;14.40;;;8.40;99.90;;;;;;5089574;28;20166;-57
2021/03/19 12:55:51;;;;;;;9.33;8.10;;;8.20;99.90;;;;;;5090555;28;20190;-51
2021/03/19 12:58:20;;;;;;;6.60;6.00;;;7.90;99.90;;;;;;5090407;28;20251;-51
2021/03/19 13:00:45;;;;;;;12.43;11.33;;;7.70;99.90;;;;;;5090766;28;20166;-54
2021/03/19 13:03:11;;;;;;;6.30;5.77;;;7.60;99.90;;;;;;5090579;28;20170;-54
2021/03/19 13:05:37;;;;;;;18.23;16.53;;;7.40;99.90;;;;;;5090859;28;20238;-54
2021/03/19 13:08:03;;;;;;;6.70;5.67;;;7.20;99.90;;;;;;5073513;28;20195;-55
2021/03/19 13:10:31;;;;;;;6.70;6.10;;;7.10;99.90;;;;;;5070271;28;20270;-57
2021/03/19 13:12:57;;;;;;;2.97;2.73;;;7.00;99.90;;;;;;5068944;28;20537;-48
2021/03/19 13:15:27;;;;;;;4.00;3.60;;;6.90;99.90;;;;;;5070369;28;20229;-57
2021/03/19 13:17:52;;;;;;;4.67;4.27;;;6.90;99.90;;;;;;5070218;28;20198;-53